Terminal Aerodrome Forecast
Issued by NWS Rapid City, SD

Home | Current Version | Previous Version | Text Only | Print | Product List | Glossary Off
Versions: 1 2 3 4 5 6 7 8 9 10 11 12 13 14 15 16 17 18

095
FTUS43 KUNR 152019 AAA
TAFRAP
TAF AMD
KRAP 152019Z 1520/1618 35013KT P6SM BKN035 OVC050
     FM160000 36011KT P6SM BKN130=

USA.gov is the U.S. government's official web portal to all federal, state and local government web resources and services.